createdAt,value
2023-03-06T00:00:04.605Z,57.00
2023-03-06T00:02:31.098Z,57.00
2023-03-06T00:04:57.551Z,56.70
2023-03-06T00:07:24.038Z,56.80
2023-03-06T00:09:50.518Z,56.50
2023-03-06T00:12:17.628Z,56.90
2023-03-06T00:14:44.127Z,57.20
2023-03-06T00:17:10.639Z,57.30
2023-03-06T00:19:37.117Z,57.30
2023-03-06T00:22:03.596Z,57.10
2023-03-06T00:24:35.663Z,56.80
2023-03-06T00:27:02.144Z,56.60
2023-03-06T00:29:28.631Z,56.80
2023-03-06T00:31:55.106Z,56.90
2023-03-06T00:34:21.583Z,56.90
2023-03-06T00:36:48.051Z,57.20
2023-03-06T00:39:14.541Z,57.10
2023-03-06T00:41:41.012Z,57.40
2023-03-06T00:44:07.489Z,57.50
2023-03-06T00:46:33.962Z,57.40
2023-03-06T00:49:00.459Z,57.30
2023-03-06T00:51:26.945Z,57.70
2023-03-06T00:53:53.429Z,57.70
2023-03-06T00:56:20.068Z,57.80
2023-03-06T00:58:46.613Z,57.70
2023-03-06T01:01:13.121Z,57.50
2023-03-06T01:03:40.572Z,57.70
2023-03-06T01:06:07.047Z,58.80
2023-03-06T01:08:33.550Z,58.90
2023-03-06T01:11:00.040Z,59.00
2023-03-06T01:13:26.534Z,59.10
2023-03-06T01:15:53.027Z,58.00
2023-03-06T01:18:19.528Z,57.90
2023-03-06T01:20:46.039Z,58.80
2023-03-06T01:23:12.530Z,59.00
2023-03-06T01:25:38.998Z,59.30
2023-03-06T01:28:05.498Z,59.30
2023-03-06T01:30:31.990Z,59.20
2023-03-06T01:32:58.465Z,59.10
2023-03-06T01:35:25.021Z,59.20
2023-03-06T01:37:51.533Z,59.40
2023-03-06T01:40:18.017Z,59.40
2023-03-06T01:42:46.417Z,59.40
2023-03-06T01:45:13.298Z,59.60
2023-03-06T01:47:39.777Z,59.60
2023-03-06T01:50:06.271Z,59.30
2023-03-06T01:52:32.739Z,59.00
2023-03-06T01:54:59.231Z,57.80
2023-03-06T01:57:25.714Z,59.00
2023-03-06T01:59:52.219Z,59.10
2023-03-06T02:02:18.706Z,59.10
2023-03-06T02:04:45.281Z,59.00
2023-03-06T02:07:11.778Z,59.00
2023-03-06T02:09:38.255Z,59.10
2023-03-06T02:12:05.659Z,59.30
2023-03-06T02:14:32.200Z,58.90
2023-03-06T02:16:58.714Z,59.00
2023-03-06T02:19:25.221Z,59.30
2023-03-06T02:21:53.696Z,59.40
2023-03-06T02:24:20.183Z,58.20
2023-03-06T02:26:46.670Z,57.80
2023-03-06T02:29:13.146Z,59.30
2023-03-06T02:31:39.628Z,59.60
2023-03-06T02:34:06.121Z,59.20
2023-03-06T02:36:32.606Z,59.30
2023-03-06T02:38:59.083Z,59.30
2023-03-06T02:41:25.562Z,59.30
2023-03-06T02:43:52.062Z,59.40
2023-03-06T02:46:18.646Z,59.50
2023-03-06T02:48:45.215Z,59.20
2023-03-06T02:51:11.690Z,59.40
2023-03-06T02:53:38.173Z,59.60
2023-03-06T02:56:04.645Z,59.70
2023-03-06T02:58:31.114Z,59.90
2023-03-06T03:00:57.590Z,60.00
2023-03-06T03:03:24.087Z,59.70
2023-03-06T03:05:50.560Z,59.50
2023-03-06T03:08:17.061Z,59.60
2023-03-06T03:10:43.577Z,59.90
2023-03-06T03:13:10.044Z,60.30
2023-03-06T03:15:36.529Z,61.00
2023-03-06T03:18:03.028Z,60.10
2023-03-06T03:20:29.518Z,59.80
2023-03-06T03:22:55.984Z,59.60
2023-03-06T03:25:22.478Z,59.70
2023-03-06T03:27:48.990Z,60.00
2023-03-06T03:30:15.460Z,59.70
2023-03-06T03:32:41.924Z,59.60
2023-03-06T03:35:11.781Z,59.30
2023-03-06T03:37:38.271Z,58.90
2023-03-06T03:40:04.810Z,59.00
2023-03-06T03:42:31.269Z,59.30
2023-03-06T03:44:57.758Z,59.20
2023-03-06T03:47:24.218Z,59.40
2023-03-06T03:49:50.693Z,59.30
2023-03-06T03:52:17.170Z,59.00
2023-03-06T03:54:43.664Z,59.10
2023-03-06T03:57:10.147Z,59.00
2023-03-06T03:59:36.644Z,59.10
2023-03-06T04:02:03.163Z,59.40
2023-03-06T04:04:29.686Z,59.50
2023-03-06T04:06:56.169Z,59.40
2023-03-06T04:09:22.655Z,60.00
2023-03-06T04:11:49.136Z,59.90
2023-03-06T04:14:15.774Z,59.90
2023-03-06T04:16:42.278Z,60.20
2023-03-06T04:19:08.748Z,60.30
2023-03-06T04:21:35.221Z,59.90
2023-03-06T04:24:01.692Z,60.00
2023-03-06T04:26:28.196Z,60.30
2023-03-06T04:28:54.693Z,60.50
2023-03-06T04:31:21.222Z,60.50
2023-03-06T04:33:47.723Z,60.80
2023-03-06T04:36:14.218Z,60.50
2023-03-06T04:38:40.745Z,60.20
2023-03-06T04:41:07.257Z,60.40
2023-03-06T04:43:33.911Z,60.50
2023-03-06T04:46:00.419Z,60.60
2023-03-06T04:48:26.946Z,60.30
2023-03-06T04:50:53.425Z,60.20
2023-03-06T04:53:19.899Z,60.00
2023-03-06T04:55:46.380Z,59.90
2023-03-06T04:58:12.859Z,59.70
2023-03-06T05:00:39.383Z,59.70
2023-03-06T05:03:05.883Z,59.50
2023-03-06T05:05:32.367Z,59.80
2023-03-06T05:07:58.856Z,59.70
2023-03-06T05:10:25.335Z,59.70
2023-03-06T05:12:51.819Z,59.60
2023-03-06T05:15:18.297Z,59.50
2023-03-06T05:17:44.785Z,59.20
2023-03-06T05:20:11.274Z,59.30
2023-03-06T05:22:37.750Z,59.10
2023-03-06T05:25:04.291Z,59.20
2023-03-06T05:27:30.779Z,59.30
2023-03-06T05:29:57.257Z,59.40
2023-03-06T05:32:23.845Z,59.30
2023-03-06T05:34:50.375Z,59.50
2023-03-06T05:37:16.871Z,59.30
2023-03-06T05:39:43.552Z,58.90
2023-03-06T05:42:10.040Z,59.00
2023-03-06T05:44:36.497Z,59.20
2023-03-06T05:47:02.986Z,59.00
2023-03-06T05:49:29.468Z,59.20
2023-03-06T05:51:55.945Z,59.20
2023-03-06T05:54:22.422Z,59.20
2023-03-06T05:56:48.954Z,59.30
2023-03-06T05:59:15.430Z,59.30
2023-03-06T06:01:41.937Z,59.50
2023-03-06T06:04:08.405Z,59.40
2023-03-06T06:06:34.883Z,59.40
2023-03-06T06:09:01.342Z,59.20
2023-03-06T06:11:27.829Z,58.90
2023-03-06T06:13:54.303Z,59.00
2023-03-06T06:16:20.794Z,59.60
2023-03-06T06:18:47.296Z,59.10
2023-03-06T06:21:13.797Z,59.00
2023-03-06T06:23:40.280Z,58.90
2023-03-06T06:26:06.745Z,58.80
2023-03-06T06:28:33.212Z,59.30
2023-03-06T06:30:59.727Z,59.40
2023-03-06T06:33:26.235Z,59.40
2023-03-06T06:35:52.770Z,59.40
2023-03-06T06:38:19.290Z,59.10
2023-03-06T06:41:04.238Z,59.10
2023-03-06T06:43:32.222Z,59.10
2023-03-06T06:46:16.473Z,58.90
2023-03-06T06:48:45.170Z,59.00
2023-03-06T06:51:11.660Z,58.90
2023-03-06T06:53:38.146Z,58.90
2023-03-06T06:56:04.625Z,59.00
2023-03-06T06:58:31.120Z,59.30
2023-03-06T07:00:57.598Z,59.20
2023-03-06T07:03:24.054Z,59.10
2023-03-06T07:05:50.747Z,58.80
2023-03-06T07:08:17.231Z,58.90
2023-03-06T07:10:43.732Z,58.80
2023-03-06T07:13:10.207Z,59.20
2023-03-06T07:15:36.701Z,59.30
2023-03-06T07:18:03.211Z,59.30
2023-03-06T07:20:29.983Z,59.10
2023-03-06T07:22:56.476Z,59.10
2023-03-06T07:25:23.991Z,59.00
2023-03-06T07:27:53.669Z,58.80
2023-03-06T07:30:20.696Z,58.60
2023-03-06T07:32:47.188Z,58.70
2023-03-06T07:35:20.149Z,59.10
2023-03-06T07:37:47.231Z,59.20
2023-03-06T07:40:13.721Z,58.90
2023-03-06T07:42:40.197Z,59.20
2023-03-06T07:45:06.679Z,59.40
2023-03-06T07:47:33.156Z,59.30
2023-03-06T07:49:59.633Z,59.00
2023-03-06T07:52:26.111Z,58.70
2023-03-06T07:54:52.610Z,58.80
2023-03-06T07:57:19.115Z,59.10
2023-03-06T07:59:45.602Z,59.30
2023-03-06T08:02:12.080Z,59.30
2023-03-06T08:04:38.557Z,59.40
2023-03-06T08:07:05.050Z,59.40
2023-03-06T08:09:31.541Z,59.50
2023-03-06T08:11:58.042Z,59.20
2023-03-06T08:14:24.564Z,59.10
2023-03-06T08:16:51.051Z,59.10
2023-03-06T08:19:17.520Z,59.00
2023-03-06T08:21:44.033Z,59.20
2023-03-06T08:24:10.515Z,59.00
2023-03-06T08:26:37.014Z,59.10
2023-03-06T08:29:03.479Z,59.30
2023-03-06T08:31:29.985Z,59.40
2023-03-06T08:33:56.467Z,59.60
2023-03-06T08:36:22.974Z,59.70
2023-03-06T08:38:49.449Z,59.60
2023-03-06T08:41:15.967Z,59.30
2023-03-06T08:43:42.476Z,59.40
2023-03-06T08:46:08.973Z,59.60
2023-03-06T08:48:35.446Z,59.60
2023-03-06T08:51:01.971Z,59.80
2023-03-06T08:53:42.033Z,59.70
2023-03-06T08:56:09.414Z,59.50
2023-03-06T08:58:35.959Z,59.50
2023-03-06T09:01:02.550Z,59.40
2023-03-06T09:03:29.119Z,59.60
2023-03-06T09:05:55.610Z,60.10
2023-03-06T09:08:22.098Z,60.10
2023-03-06T09:10:48.646Z,60.10
2023-03-06T09:13:15.167Z,60.00
2023-03-06T09:15:41.650Z,60.00
2023-03-06T09:18:08.210Z,60.00
2023-03-06T09:20:34.736Z,59.40
2023-03-06T09:23:01.229Z,59.60
2023-03-06T09:25:27.711Z,59.80
2023-03-06T09:28:10.173Z,60.00
2023-03-06T09:30:37.288Z,60.00
2023-03-06T09:33:03.855Z,59.60
2023-03-06T09:35:30.341Z,59.50
2023-03-06T09:37:56.821Z,59.60
2023-03-06T09:40:23.290Z,59.90
2023-03-06T09:42:49.782Z,60.10
2023-03-06T09:45:16.264Z,60.10
2023-03-06T09:47:42.798Z,59.90
2023-03-06T09:50:09.279Z,59.80
2023-03-06T09:52:35.766Z,59.80
2023-03-06T09:55:02.232Z,60.10
2023-03-06T09:57:28.750Z,59.90
2023-03-06T09:59:55.230Z,59.60
2023-03-06T10:02:21.817Z,59.90
2023-03-06T10:04:48.419Z,60.00
2023-03-06T10:07:14.949Z,60.10
2023-03-06T10:09:41.448Z,60.10
2023-03-06T10:12:07.980Z,60.30
2023-03-06T10:14:34.465Z,60.40
2023-03-06T10:17:00.963Z,60.40
2023-03-06T10:19:27.443Z,60.20
2023-03-06T10:21:53.926Z,60.90
2023-03-06T10:24:20.399Z,60.50
2023-03-06T10:26:46.978Z,61.00
2023-03-06T10:29:13.523Z,60.80
2023-03-06T10:31:40.147Z,60.90
2023-03-06T10:34:06.617Z,60.90
2023-03-06T10:36:33.105Z,60.80
2023-03-06T10:38:59.630Z,60.30
2023-03-06T10:41:26.180Z,60.40
2023-03-06T10:43:52.663Z,60.50
2023-03-06T10:46:19.222Z,60.60
2023-03-06T10:48:45.733Z,60.90
2023-03-06T10:51:18.136Z,60.90
2023-03-06T10:53:45.147Z,61.10
2023-03-06T10:56:12.712Z,61.00
2023-03-06T10:58:39.203Z,61.00
2023-03-06T11:01:05.672Z,60.50
2023-03-06T11:03:32.161Z,60.40
2023-03-06T11:05:58.639Z,60.60
2023-03-06T11:08:25.136Z,60.80
2023-03-06T11:10:51.636Z,60.60
2023-03-06T11:13:18.116Z,60.70
2023-03-06T11:15:44.642Z,60.90
2023-03-06T11:18:11.150Z,60.90
2023-03-06T11:20:50.442Z,60.80
2023-03-06T11:23:18.270Z,60.80
2023-03-06T11:25:44.737Z,60.70
2023-03-06T11:28:11.240Z,60.50
2023-03-06T11:30:37.736Z,60.40
2023-03-06T11:33:06.167Z,60.00
2023-03-06T11:35:32.663Z,60.20
2023-03-06T11:37:59.166Z,60.10
2023-03-06T11:40:25.644Z,60.00
2023-03-06T11:42:52.115Z,60.00
2023-03-06T11:45:18.590Z,60.20
2023-03-06T11:47:45.077Z,60.00
2023-03-06T11:50:11.558Z,60.00
2023-03-06T11:52:38.050Z,60.10
2023-03-06T11:55:04.524Z,60.20
2023-03-06T11:57:31.000Z,60.10
2023-03-06T11:59:57.505Z,60.00
2023-03-06T12:02:24.109Z,60.00
2023-03-06T12:04:50.635Z,59.80
2023-03-06T12:07:17.107Z,59.40
2023-03-06T12:09:43.592Z,59.20
2023-03-06T12:12:10.061Z,59.80
2023-03-06T12:14:36.555Z,59.50
2023-03-06T12:17:03.030Z,59.70
2023-03-06T12:19:29.515Z,59.70
2023-03-06T12:21:55.982Z,59.40
2023-03-06T12:24:24.218Z,59.40
2023-03-06T12:26:50.705Z,59.10
2023-03-06T12:29:17.180Z,59.40
2023-03-06T12:31:43.690Z,59.20
2023-03-06T12:34:10.190Z,58.90
2023-03-06T12:36:36.654Z,59.00
2023-03-06T12:39:03.138Z,58.90
2023-03-06T12:41:29.611Z,58.80
2023-03-06T12:43:56.096Z,58.40
2023-03-06T12:46:22.665Z,58.60
2023-03-06T12:48:49.186Z,58.70
2023-03-06T12:51:15.682Z,58.50
2023-03-06T12:53:42.166Z,58.50
2023-03-06T12:56:08.629Z,58.60
2023-03-06T12:58:35.110Z,58.80
2023-03-06T13:01:04.857Z,58.70
2023-03-06T13:03:31.401Z,58.70
2023-03-06T13:05:57.909Z,58.90
2023-03-06T13:08:24.382Z,58.90
2023-03-06T13:10:50.867Z,58.70
2023-03-06T13:13:18.224Z,58.50
2023-03-06T13:15:44.709Z,58.70
2023-03-06T13:18:11.196Z,58.90
2023-03-06T13:20:37.677Z,58.20
2023-03-06T13:23:04.197Z,58.50
2023-03-06T13:25:30.785Z,58.40
2023-03-06T13:27:57.317Z,58.40
2023-03-06T13:30:23.794Z,58.10
2023-03-06T13:32:50.261Z,58.10
2023-03-06T13:35:18.271Z,57.80
2023-03-06T13:37:44.851Z,57.70
2023-03-06T13:40:11.537Z,57.60
2023-03-06T13:42:42.361Z,57.60
2023-03-06T13:45:08.836Z,57.60
2023-03-06T13:47:45.052Z,57.50
2023-03-06T13:50:21.790Z,57.20
2023-03-06T13:52:48.245Z,57.50
2023-03-06T13:55:14.739Z,57.30
2023-03-06T13:57:41.244Z,57.40
2023-03-06T14:00:09.619Z,57.30
2023-03-06T14:02:36.551Z,57.50
2023-03-06T14:05:03.101Z,57.20
2023-03-06T14:07:29.573Z,57.20
2023-03-06T14:09:56.071Z,57.00
2023-03-06T14:12:22.556Z,57.10
2023-03-06T14:14:49.039Z,57.00
2023-03-06T14:17:15.519Z,57.10
2023-03-06T14:19:41.986Z,56.90
2023-03-06T14:22:08.455Z,57.00
2023-03-06T14:24:34.941Z,56.80
2023-03-06T14:27:01.432Z,56.50
2023-03-06T14:29:27.910Z,56.60
2023-03-06T14:31:54.390Z,57.00
2023-03-06T14:34:20.880Z,56.90
2023-03-06T14:36:47.354Z,56.50
2023-03-06T14:39:13.852Z,56.60
2023-03-06T14:41:40.346Z,56.50
2023-03-06T14:44:06.815Z,56.30
2023-03-06T14:46:33.352Z,56.30
2023-03-06T14:48:59.878Z,56.40
2023-03-06T14:51:26.355Z,56.10
2023-03-06T14:53:52.819Z,56.10
2023-03-06T14:56:19.300Z,56.20
2023-03-06T14:58:45.786Z,56.10
2023-03-06T15:01:12.272Z,56.40
2023-03-06T15:03:38.767Z,56.20
2023-03-06T15:06:05.253Z,56.10
2023-03-06T15:08:31.748Z,55.80
2023-03-06T15:10:58.226Z,55.90
2023-03-06T15:13:24.719Z,55.80
2023-03-06T15:15:51.257Z,56.30
2023-03-06T15:18:17.760Z,55.90
2023-03-06T15:20:44.269Z,55.50
2023-03-06T15:23:10.762Z,55.90
2023-03-06T15:25:37.222Z,55.90
2023-03-06T15:28:03.681Z,55.10
2023-03-06T15:30:30.148Z,55.60
2023-03-06T15:32:56.684Z,55.40
2023-03-06T15:35:23.228Z,55.00
2023-03-06T15:37:49.743Z,55.30
2023-03-06T15:40:16.246Z,55.30
2023-03-06T15:42:42.734Z,55.20
2023-03-06T15:45:09.244Z,55.10
2023-03-06T15:47:35.716Z,55.10
2023-03-06T15:50:02.223Z,54.90
2023-03-06T15:52:28.693Z,55.20
2023-03-06T15:54:55.164Z,55.00
2023-03-06T15:57:21.681Z,54.90
2023-03-06T15:59:48.169Z,55.30
2023-03-06T16:02:14.673Z,55.50
2023-03-06T16:04:41.181Z,55.60
2023-03-06T16:07:07.687Z,55.60
2023-03-06T16:09:34.201Z,55.60
2023-03-06T16:12:00.710Z,55.90
2023-03-06T16:14:27.226Z,56.10
2023-03-06T16:16:53.727Z,56.40
2023-03-06T16:19:28.059Z,56.20
2023-03-06T16:21:54.655Z,56.20
2023-03-06T16:24:21.177Z,56.50
2023-03-06T16:26:47.688Z,56.50
2023-03-06T16:29:14.164Z,56.30
2023-03-06T16:31:40.642Z,56.60
2023-03-06T16:34:07.103Z,56.60
2023-03-06T16:36:33.580Z,56.30
2023-03-06T16:39:00.039Z,56.20
2023-03-06T16:41:26.529Z,56.10
2023-03-06T16:43:53.004Z,56.30
2023-03-06T16:46:24.453Z,56.00
2023-03-06T16:48:50.961Z,55.80
2023-03-06T16:51:17.447Z,56.10
2023-03-06T16:53:43.932Z,54.80
2023-03-06T16:56:10.410Z,55.70
2023-03-06T16:58:36.887Z,55.60
2023-03-06T17:01:03.406Z,55.80
2023-03-06T17:03:29.869Z,54.60
2023-03-06T17:05:56.364Z,55.60
2023-03-06T17:08:22.844Z,55.80
2023-03-06T17:10:50.249Z,55.90
2023-03-06T17:13:16.780Z,56.40
2023-03-06T17:15:43.322Z,56.50
2023-03-06T17:18:09.832Z,56.50
2023-03-06T17:20:36.319Z,56.80
2023-03-06T17:23:02.784Z,57.00
2023-03-06T17:25:29.309Z,57.00
2023-03-06T17:27:55.786Z,56.80
2023-03-06T17:30:22.240Z,57.40
2023-03-06T17:32:48.706Z,57.30
2023-03-06T17:35:15.171Z,57.00
2023-03-06T17:37:41.681Z,57.50
2023-03-06T17:40:08.166Z,57.50
2023-03-06T17:42:34.663Z,57.20
2023-03-06T17:45:01.158Z,57.20
2023-03-06T17:47:27.638Z,57.50
2023-03-06T17:49:54.138Z,57.60
2023-03-06T17:52:20.650Z,57.30
2023-03-06T17:54:47.124Z,57.10
2023-03-06T17:57:13.609Z,57.20
2023-03-06T17:59:40.089Z,57.20
2023-03-06T18:02:06.740Z,57.60
2023-03-06T18:04:33.242Z,57.30
2023-03-06T18:06:59.761Z,57.50
2023-03-06T18:09:26.229Z,57.40
2023-03-06T18:11:52.727Z,57.30
2023-03-06T18:14:19.213Z,57.30
2023-03-06T18:16:45.702Z,57.40
2023-03-06T18:19:12.181Z,57.50
2023-03-06T18:21:38.678Z,57.50
2023-03-06T18:24:05.150Z,57.60
2023-03-06T18:26:31.646Z,57.60
2023-03-06T18:28:58.126Z,57.60
2023-03-06T18:31:24.633Z,57.30
2023-03-06T18:33:51.158Z,57.00
2023-03-06T18:36:17.639Z,57.20
2023-03-06T18:38:44.098Z,57.50
2023-03-06T18:41:10.575Z,57.50
2023-03-06T18:43:37.040Z,57.60
2023-03-06T18:46:03.572Z,57.70
2023-03-06T18:48:30.088Z,58.00
2023-03-06T18:50:56.591Z,58.20
2023-03-06T18:53:23.064Z,58.40
2023-03-06T18:55:49.555Z,58.60
2023-03-06T18:58:16.044Z,58.70
2023-03-06T19:00:42.576Z,59.00
2023-03-06T19:03:09.056Z,58.80
2023-03-06T19:05:35.555Z,58.40
2023-03-06T19:08:02.019Z,58.20
2023-03-06T19:10:28.479Z,58.30
2023-03-06T19:12:54.958Z,58.30
2023-03-06T19:15:21.465Z,58.20
2023-03-06T19:17:47.951Z,58.60
2023-03-06T19:20:14.441Z,58.70
2023-03-06T19:22:40.939Z,58.70
2023-03-06T19:25:07.411Z,58.80
2023-03-06T19:27:33.891Z,58.70
2023-03-06T19:30:00.377Z,58.50
2023-03-06T19:32:26.871Z,58.70
2023-03-06T19:34:53.392Z,58.60
2023-03-06T19:37:19.878Z,58.40
2023-03-06T19:39:46.360Z,58.70
2023-03-06T19:42:13.922Z,58.90
2023-03-06T19:44:40.501Z,58.70
2023-03-06T19:47:06.982Z,58.60
2023-03-06T19:49:33.452Z,59.00
2023-03-06T19:51:59.931Z,59.20
2023-03-06T19:54:26.411Z,59.10
2023-03-06T19:56:52.900Z,59.10
2023-03-06T19:59:19.396Z,59.00
2023-03-06T20:01:45.915Z,58.90
2023-03-06T20:04:12.523Z,59.00
2023-03-06T20:06:39.019Z,58.90
2023-03-06T20:09:05.518Z,58.80
2023-03-06T20:11:31.993Z,58.80
2023-03-06T20:13:58.443Z,58.80
2023-03-06T20:16:24.887Z,58.80
2023-03-06T20:18:51.372Z,59.10
2023-03-06T20:21:17.901Z,58.90
2023-03-06T20:23:44.400Z,59.00
2023-03-06T20:26:10.918Z,59.10
2023-03-06T20:28:39.139Z,58.90
2023-03-06T20:31:05.769Z,58.60
2023-03-06T20:33:32.272Z,58.70
2023-03-06T20:35:58.795Z,59.10
2023-03-06T20:38:25.280Z,59.10
2023-03-06T20:40:51.757Z,58.90
2023-03-06T20:43:18.242Z,58.90
2023-03-06T20:45:44.734Z,58.80
2023-03-06T20:48:11.230Z,58.80
2023-03-06T20:50:37.698Z,59.00
2023-03-06T20:53:04.178Z,59.10
2023-03-06T20:55:30.646Z,58.70
2023-03-06T20:57:57.126Z,58.90
2023-03-06T21:00:23.595Z,59.10
2023-03-06T21:02:50.073Z,58.80
2023-03-06T21:05:16.582Z,58.60
2023-03-06T21:07:43.080Z,58.70
2023-03-06T21:10:09.579Z,59.10
2023-03-06T21:12:36.062Z,58.70
2023-03-06T21:15:02.559Z,58.60
2023-03-06T21:17:29.032Z,58.70
2023-03-06T21:19:55.518Z,58.60
2023-03-06T21:22:22.121Z,58.40
2023-03-06T21:24:48.614Z,58.50
2023-03-06T21:27:15.135Z,58.90
2023-03-06T21:29:41.630Z,58.70
2023-03-06T21:32:08.174Z,58.70
2023-03-06T21:34:34.680Z,58.80
2023-03-06T21:37:01.168Z,58.70
2023-03-06T21:39:27.650Z,58.90
2023-03-06T21:41:54.108Z,58.80
2023-03-06T21:44:20.593Z,58.60
2023-03-06T21:46:47.100Z,58.10
2023-03-06T21:49:13.569Z,58.40
2023-03-06T21:51:40.039Z,58.50
2023-03-06T21:54:06.705Z,58.20
2023-03-06T21:56:33.193Z,58.40
2023-03-06T21:58:59.877Z,58.40
2023-03-06T22:01:26.431Z,58.60
2023-03-06T22:03:52.943Z,59.00
2023-03-06T22:06:19.471Z,58.70
2023-03-06T22:08:45.974Z,58.60
2023-03-06T22:11:12.468Z,59.00
2023-03-06T22:13:38.950Z,59.30
2023-03-06T22:16:05.551Z,59.30
2023-03-06T22:18:32.075Z,59.40
2023-03-06T22:20:58.548Z,59.00
2023-03-06T22:23:25.041Z,58.90
2023-03-06T22:25:51.533Z,59.00
2023-03-06T22:28:18.018Z,58.90
2023-03-06T22:30:44.492Z,58.90
2023-03-06T22:33:10.978Z,58.90
2023-03-06T22:35:37.482Z,58.70
2023-03-06T22:38:04.003Z,58.50
2023-03-06T22:40:30.488Z,58.70
2023-03-06T22:42:56.972Z,59.10
2023-03-06T22:45:23.447Z,59.20
2023-03-06T22:47:51.962Z,59.30
2023-03-06T22:50:24.728Z,59.60
2023-03-06T22:52:51.216Z,59.30
2023-03-06T22:55:17.691Z,58.70
2023-03-06T22:57:44.154Z,58.70
2023-03-06T23:00:10.657Z,59.80
2023-03-06T23:02:37.144Z,59.70
2023-03-06T23:05:03.666Z,59.60
2023-03-06T23:07:30.144Z,59.60
2023-03-06T23:09:56.616Z,59.50
2023-03-06T23:12:23.116Z,59.40
2023-03-06T23:14:49.696Z,59.40
2023-03-06T23:17:16.233Z,59.50
2023-03-06T23:19:42.720Z,59.70
2023-03-06T23:22:09.202Z,59.70
2023-03-06T23:24:36.397Z,59.60
2023-03-06T23:27:02.872Z,59.70
2023-03-06T23:29:29.348Z,59.80
2023-03-06T23:31:55.839Z,59.70
2023-03-06T23:34:22.346Z,60.10
2023-03-06T23:36:48.830Z,60.20
2023-03-06T23:39:15.505Z,60.50
2023-03-06T23:41:41.981Z,60.20
2023-03-06T23:44:08.484Z,59.80
2023-03-06T23:46:35.028Z,59.80
2023-03-06T23:49:01.532Z,60.00
2023-03-06T23:51:28.022Z,59.80
2023-03-06T23:53:54.504Z,59.80
2023-03-06T23:56:20.979Z,60.20
2023-03-06T23:58:47.456Z,60.50
